createdAt,value
2019-02-22T00:01:07.481Z,102474.06
2019-02-22T00:03:36.212Z,102483.28
2019-02-22T00:06:04.717Z,102483.28
2019-02-22T00:08:33.140Z,102494.55
2019-02-22T00:11:01.587Z,102496.25
2019-02-22T00:13:30.025Z,102495.30
2019-02-22T00:15:58.537Z,102495.30
2019-02-22T00:18:27.065Z,102495.72
2019-02-22T00:20:55.575Z,102493.92
2019-02-22T00:23:24.288Z,102499.58
2019-02-22T00:25:52.810Z,102501.33
2019-02-22T00:28:21.336Z,102502.61
2019-02-22T00:30:49.828Z,102496.92
2019-02-22T00:33:18.463Z,102500.88
2019-02-22T00:35:47.168Z,102503.95
2019-02-22T00:38:15.702Z,102504.77
2019-02-22T00:40:44.133Z,102505.19
2019-02-22T00:43:12.676Z,102506.05
2019-02-22T00:45:41.336Z,102504.71
2019-02-22T00:48:09.806Z,102513.11
2019-02-22T00:50:38.357Z,102516.30
2019-02-22T00:53:06.834Z,102516.30
2019-02-22T00:55:35.276Z,102518.05
2019-02-22T00:58:03.810Z,102521.50
2019-02-22T01:00:32.428Z,102518.88
2019-02-22T01:03:01.011Z,102512.72
2019-02-22T01:05:29.427Z,102520.64
2019-02-22T01:07:58.041Z,102520.64
2019-02-22T01:10:31.325Z,102516.72
2019-02-22T01:12:56.728Z,102521.47
2019-02-22T01:15:25.162Z,102520.12
2019-02-22T01:17:53.792Z,102519.20
2019-02-22T01:20:22.226Z,102521.44
2019-02-22T01:22:50.881Z,102528.84
2019-02-22T01:25:19.538Z,102530.94
2019-02-22T01:27:47.970Z,102530.94
2019-02-22T01:30:16.615Z,102542.72
2019-02-22T01:32:45.040Z,102539.66
2019-02-22T01:35:13.502Z,102542.31
2019-02-22T01:37:42.198Z,102533.94
2019-02-22T01:40:11.203Z,102539.69
2019-02-22T01:42:39.644Z,102535.73
2019-02-22T01:45:08.252Z,102526.95
2019-02-22T01:47:36.697Z,102526.95
2019-02-22T01:50:06.493Z,102528.19
2019-02-22T01:52:34.921Z,102530.81
2019-02-22T01:55:03.463Z,102533.36
2019-02-22T01:57:31.970Z,102534.66
2019-02-22T02:00:00.585Z,102534.15
2019-02-22T02:02:29.094Z,102539.79
2019-02-22T02:04:57.702Z,102544.58
2019-02-22T02:07:26.268Z,102547.16
2019-02-22T02:09:54.730Z,102555.94
2019-02-22T02:12:23.323Z,102552.45
2019-02-22T02:14:51.858Z,102552.94
2019-02-22T02:17:20.421Z,102557.28
2019-02-22T02:19:48.967Z,102562.55
2019-02-22T02:22:17.440Z,102565.20
2019-02-22T02:24:46.099Z,102555.59
2019-02-22T02:27:14.695Z,102566.47
2019-02-22T02:29:43.272Z,102567.85
2019-02-22T02:32:11.944Z,102569.61
2019-02-22T02:34:40.389Z,102569.67
2019-02-22T02:37:08.976Z,102566.20
2019-02-22T02:39:37.415Z,102567.44
2019-02-22T02:42:06.224Z,102567.44
2019-02-22T02:44:34.952Z,102570.98
2019-02-22T02:47:03.431Z,102567.95
2019-02-22T02:49:31.933Z,102568.81
2019-02-22T02:52:00.601Z,102556.15
2019-02-22T02:54:29.096Z,102554.88
2019-02-22T02:56:57.630Z,102560.59
2019-02-22T02:59:26.191Z,102556.66
2019-02-22T03:01:54.706Z,102556.22
2019-02-22T03:04:23.352Z,102561.94
2019-02-22T03:06:53.745Z,102564.52
2019-02-22T03:09:22.329Z,102567.09
2019-02-22T03:11:50.795Z,102565.72
2019-02-22T03:14:19.686Z,102563.92
2019-02-22T03:16:48.207Z,102562.55
2019-02-22T03:19:16.704Z,102569.16
2019-02-22T03:21:45.211Z,102562.06
2019-02-22T03:24:13.639Z,102569.98
2019-02-22T03:26:42.126Z,102577.05
2019-02-22T03:29:10.583Z,102566.99
2019-02-22T03:31:39.038Z,102577.39
2019-02-22T03:34:07.492Z,102575.18
2019-02-22T03:36:36.213Z,102569.46
2019-02-22T03:39:06.229Z,102579.48
2019-02-22T03:41:34.814Z,102579.48
2019-02-22T03:44:03.411Z,102580.00
2019-02-22T03:46:31.896Z,102583.06
2019-02-22T03:49:00.351Z,102582.17
2019-02-22T03:51:29.367Z,102582.17
2019-02-22T03:53:57.910Z,102590.91
2019-02-22T03:56:26.535Z,102591.33
2019-02-22T03:58:55.134Z,102597.94
2019-02-22T04:01:23.631Z,102604.48
2019-02-22T04:03:52.161Z,102607.92
2019-02-22T04:06:20.757Z,102608.33
2019-02-22T04:08:49.236Z,102607.88
2019-02-22T04:11:17.732Z,102603.95
2019-02-22T04:13:46.406Z,102615.28
2019-02-22T04:16:14.918Z,102610.95
2019-02-22T04:18:43.514Z,102608.78
2019-02-22T04:21:11.979Z,102620.55
2019-02-22T04:23:40.462Z,102623.58
2019-02-22T04:26:08.929Z,102624.36
2019-02-22T04:28:37.579Z,102626.90
2019-02-22T04:31:06.033Z,102626.90
2019-02-22T04:33:34.654Z,102632.70
2019-02-22T04:36:03.195Z,102632.70
2019-02-22T04:38:31.660Z,102627.88
2019-02-22T04:41:00.600Z,102633.26
2019-02-22T04:43:29.178Z,102633.26
2019-02-22T04:45:57.717Z,102628.80
2019-02-22T04:48:26.200Z,102633.11
2019-02-22T04:50:54.684Z,102631.80
2019-02-22T04:53:23.134Z,102636.17
2019-02-22T04:55:51.604Z,102641.81
2019-02-22T04:58:20.051Z,102640.05
2019-02-22T05:00:48.502Z,102644.72
2019-02-22T05:03:16.953Z,102647.74
2019-02-22T05:05:45.565Z,102641.20
2019-02-22T05:08:14.168Z,102644.72
2019-02-22T05:10:42.688Z,102648.67
2019-02-22T05:13:11.147Z,102655.17
2019-02-22T05:15:39.801Z,102649.54
2019-02-22T05:18:08.300Z,102663.97
2019-02-22T05:20:36.768Z,102662.66
2019-02-22T05:23:07.413Z,102664.78
2019-02-22T05:25:35.477Z,102670.38
2019-02-22T05:28:04.317Z,102664.70
2019-02-22T05:30:32.769Z,102674.30
2019-02-22T05:33:01.409Z,102674.38
2019-02-22T05:35:29.955Z,102682.32
2019-02-22T05:37:58.691Z,102687.14
2019-02-22T05:40:27.122Z,102691.48
2019-02-22T05:42:55.838Z,102694.98
2019-02-22T05:45:24.558Z,102698.50
2019-02-22T05:47:53.023Z,102693.27
2019-02-22T05:50:21.632Z,102693.72
2019-02-22T05:52:50.375Z,102694.86
2019-02-22T05:55:18.889Z,102694.86
2019-02-22T05:57:47.457Z,102696.98
2019-02-22T06:00:16.871Z,102701.77
2019-02-22T06:02:45.409Z,102704.83
2019-02-22T06:05:14.023Z,102704.83
2019-02-22T06:07:42.559Z,102707.05
2019-02-22T06:10:11.385Z,102707.05
2019-02-22T06:12:39.842Z,102715.70
2019-02-22T06:15:09.069Z,102719.62
2019-02-22T06:17:37.544Z,102724.89
2019-02-22T06:20:11.463Z,102731.12
2019-02-22T06:22:39.933Z,102731.12
2019-02-22T06:25:08.624Z,102736.77
2019-02-22T06:27:37.056Z,102740.72
2019-02-22T06:30:07.790Z,102743.83
2019-02-22T06:32:36.237Z,102752.98
2019-02-22T06:35:05.732Z,102755.16
2019-02-22T06:37:34.237Z,102756.42
2019-02-22T06:40:02.891Z,102759.03
2019-02-22T06:42:31.326Z,102757.31
2019-02-22T06:44:59.931Z,102756.42
2019-02-22T06:47:28.360Z,102756.88
2019-02-22T06:49:56.852Z,102756.88
2019-02-22T06:52:25.278Z,102757.73
2019-02-22T06:54:53.896Z,102756.42
2019-02-22T06:57:22.335Z,102763.86
2019-02-22T06:59:50.959Z,102766.12
2019-02-22T07:02:19.380Z,102770.98
2019-02-22T07:04:48.049Z,102767.52
2019-02-22T07:07:16.501Z,102768.82
2019-02-22T07:09:44.987Z,102767.52
2019-02-22T07:12:20.814Z,102771.03
2019-02-22T07:14:49.313Z,102782.80
2019-02-22T07:17:17.811Z,102776.17
2019-02-22T07:19:46.303Z,102768.23
2019-02-22T07:22:14.771Z,102768.23
2019-02-22T07:24:43.347Z,102781.91
2019-02-22T07:27:11.808Z,102787.67
2019-02-22T07:29:40.441Z,102785.55
2019-02-22T07:32:08.987Z,102789.07
2019-02-22T07:34:37.413Z,102793.41
2019-02-22T07:37:05.932Z,102795.94
2019-02-22T07:39:34.431Z,102807.30
2019-02-22T07:42:03.093Z,102808.52
2019-02-22T07:44:31.622Z,102807.94
2019-02-22T07:47:00.470Z,102822.31
2019-02-22T07:49:28.902Z,102823.22
2019-02-22T07:51:57.370Z,102830.25
2019-02-22T07:54:25.892Z,102828.59
2019-02-22T07:56:54.544Z,102832.56
2019-02-22T07:59:23.006Z,102833.37
2019-02-22T08:01:51.714Z,102833.37
2019-02-22T08:04:20.165Z,102846.95
2019-02-22T08:06:48.630Z,102853.55
2019-02-22T08:09:17.068Z,102853.55
2019-02-22T08:11:47.473Z,102859.64
2019-02-22T08:14:15.918Z,102862.25
2019-02-22T08:16:44.426Z,102864.42
2019-02-22T08:19:12.857Z,102859.23
2019-02-22T08:21:42.187Z,102860.59
2019-02-22T08:24:10.681Z,102867.58
2019-02-22T08:26:39.292Z,102883.33
2019-02-22T08:29:07.808Z,102883.33
2019-02-22T08:31:36.315Z,102883.28
2019-02-22T08:34:05.013Z,102889.47
2019-02-22T08:36:33.600Z,102884.67
2019-02-22T08:39:02.162Z,102896.91
2019-02-22T08:41:30.746Z,102893.44
2019-02-22T08:43:59.373Z,102900.84
2019-02-22T08:46:27.987Z,102900.84
2019-02-22T08:48:56.511Z,102903.50
2019-02-22T08:51:25.162Z,102901.25
2019-02-22T08:53:53.643Z,102911.35
2019-02-22T08:56:22.273Z,102915.78
2019-02-22T08:58:50.862Z,102918.04
2019-02-22T09:01:19.404Z,102918.09
2019-02-22T09:03:50.976Z,102918.09
2019-02-22T09:06:18.364Z,102923.38
2019-02-22T09:08:47.120Z,102927.70
2019-02-22T09:11:15.507Z,102930.33
2019-02-22T09:13:44.206Z,102936.81
2019-02-22T09:16:12.693Z,102938.98
2019-02-22T09:18:41.311Z,102940.75
2019-02-22T09:21:09.827Z,102942.95
2019-02-22T09:23:38.426Z,102948.23
2019-02-22T09:26:07.231Z,102945.58
2019-02-22T09:28:35.860Z,102955.14
2019-02-22T09:31:04.580Z,102943.41
2019-02-22T09:33:33.088Z,102954.78
2019-02-22T09:36:01.601Z,102953.97
2019-02-22T09:38:30.027Z,102960.52
2019-02-22T09:40:58.541Z,102956.14
2019-02-22T09:43:26.964Z,102961.92
2019-02-22T09:45:55.502Z,102959.31
2019-02-22T09:48:23.994Z,102960.30
2019-02-22T09:50:52.633Z,102959.04
2019-02-22T09:53:21.338Z,102970.02
2019-02-22T09:55:49.890Z,102970.02
2019-02-22T09:58:18.385Z,102970.11
2019-02-22T10:00:46.963Z,102969.30
2019-02-22T10:03:15.571Z,102971.06
2019-02-22T10:05:44.097Z,102969.80
2019-02-22T10:08:12.535Z,102972.91
2019-02-22T10:10:42.617Z,102972.95
2019-02-22T10:13:11.253Z,102979.02
2019-02-22T10:15:39.696Z,102978.20
2019-02-22T10:18:08.187Z,102979.51
2019-02-22T10:20:36.649Z,102980.86
2019-02-22T10:23:05.204Z,102971.29
2019-02-22T10:25:33.780Z,102971.29
2019-02-22T10:28:02.288Z,102985.01
2019-02-22T10:30:30.816Z,102988.12
2019-02-22T10:32:59.451Z,102986.86
2019-02-22T10:35:27.962Z,102988.17
2019-02-22T10:37:56.492Z,102991.38
2019-02-22T10:40:25.095Z,102991.38
2019-02-22T10:42:53.740Z,102994.45
2019-02-22T10:45:22.249Z,102990.96
2019-02-22T10:47:50.778Z,102992.31
2019-02-22T10:50:19.480Z,102992.40
2019-02-22T10:52:48.032Z,102990.69
2019-02-22T10:55:16.623Z,102988.51
2019-02-22T10:57:45.053Z,102998.67
2019-02-22T11:00:15.051Z,103008.84
2019-02-22T11:02:43.617Z,103009.78
2019-02-22T11:05:12.697Z,103005.97
2019-02-22T11:07:41.430Z,103000.88
2019-02-22T11:10:11.904Z,103003.63
2019-02-22T11:12:40.525Z,103003.73
2019-02-22T11:15:11.075Z,103012.51
2019-02-22T11:17:39.591Z,103009.02
2019-02-22T11:20:09.900Z,103008.20
2019-02-22T11:22:38.346Z,103007.41
2019-02-22T11:25:12.901Z,103005.66
2019-02-22T11:27:41.343Z,103007.97
2019-02-22T11:30:14.653Z,103005.05
2019-02-22T11:32:43.639Z,103006.88
2019-02-22T11:35:12.238Z,103004.63
2019-02-22T11:37:40.817Z,103008.91
2019-02-22T11:40:10.628Z,103009.70
2019-02-22T11:42:39.132Z,103004.07
2019-02-22T11:45:09.162Z,103008.12
2019-02-22T11:47:37.768Z,103004.25
2019-02-22T11:50:11.343Z,103014.34
2019-02-22T11:52:39.930Z,103008.25
2019-02-22T11:55:09.852Z,103002.14
2019-02-22T11:57:38.575Z,103012.71
2019-02-22T12:00:14.051Z,103011.50
2019-02-22T12:02:45.190Z,103006.34
2019-02-22T12:05:12.955Z,103004.59
2019-02-22T12:07:41.486Z,103004.59
2019-02-22T12:10:10.474Z,103006.00
2019-02-22T12:12:38.957Z,103006.58
2019-02-22T12:15:10.575Z,103003.33
2019-02-22T12:17:39.114Z,102991.64
2019-02-22T12:20:09.360Z,102995.72
2019-02-22T12:22:37.898Z,102995.33
2019-02-22T12:25:13.971Z,102993.17
2019-02-22T12:27:42.550Z,102989.28
2019-02-22T12:30:13.412Z,102991.91
2019-02-22T12:32:41.897Z,102995.30
2019-02-22T12:35:10.465Z,102997.84
2019-02-22T12:37:38.992Z,103006.27
2019-02-22T12:40:09.891Z,103009.36
2019-02-22T12:42:38.451Z,103006.42
2019-02-22T12:45:09.137Z,103003.91
2019-02-22T12:47:37.601Z,103006.19
2019-02-22T12:50:08.840Z,103007.91
2019-02-22T12:52:37.456Z,103003.14
2019-02-22T12:55:08.503Z,103011.95
2019-02-22T12:57:37.123Z,103003.71
2019-02-22T13:00:14.269Z,103003.44
2019-02-22T13:02:42.724Z,103011.95
2019-02-22T13:05:14.175Z,103006.45
2019-02-22T13:07:42.751Z,103011.45
2019-02-22T13:10:11.367Z,103009.65
2019-02-22T13:12:39.917Z,103006.52
2019-02-22T13:15:14.177Z,103010.97
2019-02-22T13:17:41.264Z,103006.16
2019-02-22T13:20:10.194Z,103003.84
2019-02-22T13:22:38.855Z,103004.25
2019-02-22T13:25:09.404Z,103005.13
2019-02-22T13:27:37.927Z,103008.62
2019-02-22T13:30:12.043Z,103009.16
2019-02-22T13:32:40.613Z,103009.11
2019-02-22T13:35:11.007Z,103011.30
2019-02-22T13:37:39.760Z,103013.08
2019-02-22T13:40:11.221Z,103012.27
2019-02-22T13:42:39.758Z,103004.72
2019-02-22T13:45:10.730Z,103011.65
2019-02-22T13:47:39.260Z,103004.51
2019-02-22T13:50:13.393Z,103007.47
2019-02-22T13:52:42.067Z,103004.75
2019-02-22T13:55:10.673Z,103006.88
2019-02-22T13:57:39.314Z,102996.34
2019-02-22T14:00:13.196Z,102999.80
2019-02-22T14:02:41.744Z,103005.38
2019-02-22T14:05:10.338Z,103005.34
2019-02-22T14:07:38.847Z,102990.88
2019-02-22T14:10:07.712Z,102987.33
2019-02-22T14:12:36.687Z,102989.34
2019-02-22T14:15:07.984Z,102987.35
2019-02-22T14:17:36.624Z,102985.30
2019-02-22T14:20:07.712Z,102983.95
2019-02-22T14:22:36.162Z,102982.63
2019-02-22T14:25:05.336Z,102982.15
2019-02-22T14:27:33.909Z,102978.67
2019-02-22T14:30:02.679Z,102990.45
2019-02-22T14:32:31.401Z,102998.31
2019-02-22T14:34:59.974Z,103003.97
2019-02-22T14:37:28.768Z,103004.77
2019-02-22T14:40:03.008Z,103005.14
2019-02-22T14:42:27.573Z,103006.42
2019-02-22T14:44:56.091Z,103014.71
2019-02-22T14:47:24.627Z,103010.75
2019-02-22T14:49:53.145Z,103010.80
2019-02-22T14:52:21.738Z,103008.20
2019-02-22T14:54:50.255Z,103002.90
2019-02-22T14:57:18.882Z,103007.73
2019-02-22T14:59:47.362Z,103002.86
2019-02-22T15:02:15.930Z,103005.03
2019-02-22T15:04:44.423Z,103003.74
2019-02-22T15:07:13.028Z,103005.48
2019-02-22T15:09:41.505Z,103004.18
2019-02-22T15:12:11.956Z,103009.92
2019-02-22T15:14:40.532Z,103014.83
2019-02-22T15:17:28.537Z,103012.61
2019-02-22T15:19:56.983Z,103015.66
2019-02-22T15:22:25.692Z,103023.08
2019-02-22T15:24:54.274Z,103012.08
2019-02-22T15:27:22.785Z,103014.68
2019-02-22T15:29:51.282Z,103017.31
2019-02-22T15:32:20.033Z,103021.69
2019-02-22T15:34:48.678Z,103024.32
2019-02-22T15:37:17.150Z,103018.61
2019-02-22T15:39:45.587Z,103012.07
2019-02-22T15:42:14.038Z,103008.59
2019-02-22T15:44:42.563Z,103004.67
2019-02-22T15:47:12.173Z,103011.66
2019-02-22T15:49:40.665Z,103008.11
2019-02-22T15:52:10.324Z,103015.53
2019-02-22T15:54:39.092Z,103017.73
2019-02-22T15:57:07.689Z,103019.92
2019-02-22T15:59:36.217Z,103022.52
2019-02-22T16:02:04.804Z,103023.39
2019-02-22T16:04:35.122Z,103029.52
2019-02-22T16:07:04.191Z,103018.97
2019-02-22T16:09:32.716Z,103022.48
2019-02-22T16:12:01.156Z,103027.26
2019-02-22T16:14:29.720Z,103036.86
2019-02-22T16:16:58.326Z,103034.19
2019-02-22T16:19:26.805Z,103035.06
2019-02-22T16:21:55.407Z,103046.00
2019-02-22T16:24:23.925Z,103032.86
2019-02-22T16:26:54.021Z,103034.62
2019-02-22T16:29:22.532Z,103038.06
2019-02-22T16:31:51.010Z,103038.43
2019-02-22T16:34:19.541Z,103034.87
2019-02-22T16:36:48.062Z,103036.12
2019-02-22T16:39:16.722Z,103038.23
2019-02-22T16:41:45.321Z,103044.29
2019-02-22T16:44:13.767Z,103035.88
2019-02-22T16:46:42.296Z,103039.75
2019-02-22T16:49:10.721Z,103045.38
2019-02-22T16:51:39.263Z,103050.55
2019-02-22T16:54:07.870Z,103057.03
2019-02-22T16:56:36.331Z,103060.05
2019-02-22T16:59:04.839Z,103061.72
2019-02-22T17:01:33.365Z,103057.75
2019-02-22T17:04:01.915Z,103054.61
2019-02-22T17:06:30.495Z,103052.38
2019-02-22T17:08:58.931Z,103057.98
2019-02-22T17:11:27.626Z,103056.60
2019-02-22T17:13:56.074Z,103059.20
2019-02-22T17:16:24.506Z,103066.11
2019-02-22T17:18:53.143Z,103069.98
2019-02-22T17:21:21.666Z,103063.35
2019-02-22T17:23:50.121Z,103064.11
2019-02-22T17:26:18.645Z,103066.70
2019-02-22T17:28:47.120Z,103072.33
2019-02-22T17:31:15.810Z,103077.05
2019-02-22T17:33:44.261Z,103078.33
2019-02-22T17:36:12.754Z,103083.44
2019-02-22T17:38:41.228Z,103089.47
2019-02-22T17:41:09.654Z,103084.14
2019-02-22T17:43:38.124Z,103092.38
2019-02-22T17:46:06.719Z,103098.45
2019-02-22T17:48:35.461Z,103097.55
2019-02-22T17:51:04.140Z,103088.73
2019-02-22T17:53:32.668Z,103084.72
2019-02-22T17:56:01.106Z,103085.13
2019-02-22T17:58:29.972Z,103092.06
2019-02-22T18:00:58.792Z,103088.08
2019-02-22T18:03:27.276Z,103085.83
2019-02-22T18:05:55.947Z,103083.57
2019-02-22T18:08:24.668Z,103080.01
2019-02-22T18:10:53.199Z,103089.59
2019-02-22T18:13:21.785Z,103103.07
2019-02-22T18:15:50.593Z,103104.75
2019-02-22T18:18:19.204Z,103104.29
2019-02-22T18:20:47.854Z,103097.65
2019-02-22T18:23:16.361Z,103094.12
2019-02-22T18:25:45.013Z,103087.03
2019-02-22T18:28:13.649Z,103086.98
2019-02-22T18:30:42.173Z,103083.86
2019-02-22T18:33:10.815Z,103085.58
2019-02-22T18:35:39.242Z,103082.41
2019-02-22T18:38:07.821Z,103084.53
2019-02-22T18:40:36.361Z,103073.55
2019-02-22T18:43:04.879Z,103084.85
2019-02-22T18:45:33.451Z,103090.55
2019-02-22T18:48:02.017Z,103085.66
2019-02-22T18:50:30.641Z,103086.47
2019-02-22T18:52:59.230Z,103070.69
2019-02-22T18:55:28.027Z,103063.66
2019-02-22T18:57:56.462Z,103063.61
2019-02-22T19:00:25.002Z,103055.74
2019-02-22T19:02:53.433Z,103055.73
2019-02-22T19:05:21.977Z,103059.58
2019-02-22T19:07:50.488Z,103059.09
2019-02-22T19:10:19.827Z,103069.47
2019-02-22T19:12:48.344Z,103076.27
2019-02-22T19:15:16.857Z,103095.96
2019-02-22T19:17:45.595Z,103095.96
2019-02-22T19:20:19.454Z,103106.39
2019-02-22T19:22:48.110Z,103107.66
2019-02-22T19:25:16.547Z,103108.05
2019-02-22T19:27:46.524Z,103108.05
2019-02-22T19:30:18.003Z,103115.86
2019-02-22T19:32:46.977Z,103111.78
2019-02-22T19:35:15.569Z,103121.89
2019-02-22T19:37:44.314Z,103130.05
2019-02-22T19:40:15.193Z,103121.68
2019-02-22T19:42:43.963Z,103120.33
2019-02-22T19:45:12.560Z,103127.68
2019-02-22T19:47:42.360Z,103128.08
2019-02-22T19:50:12.791Z,103138.89
2019-02-22T19:52:41.412Z,103138.89
2019-02-22T19:55:12.201Z,103151.92
2019-02-22T19:57:40.848Z,103148.39
2019-02-22T20:00:19.892Z,103150.96
2019-02-22T20:02:48.589Z,103136.95
2019-02-22T20:05:17.132Z,103137.70
2019-02-22T20:07:45.784Z,103137.70
2019-02-22T20:10:18.439Z,103142.88
2019-02-22T20:12:47.270Z,103142.88
2019-02-22T20:15:30.462Z,103137.97
2019-02-22T20:17:55.258Z,103136.20
2019-02-22T20:22:10.935Z,103123.86
2019-02-22T20:23:13.799Z,103148.78
2019-02-22T20:25:55.099Z,103146.05
2019-02-22T20:28:37.021Z,103152.07
2019-02-22T20:31:06.794Z,103152.07
2019-02-22T20:33:51.825Z,103144.56
2019-02-22T20:36:28.421Z,103144.56
2019-02-22T20:38:51.047Z,103153.67
2019-02-22T20:41:35.651Z,103159.30
2019-02-22T20:44:10.493Z,103151.84
2019-02-22T20:46:49.690Z,103149.56
2019-02-22T20:49:21.518Z,103155.13
2019-02-22T20:52:04.319Z,103155.13
2019-02-22T20:54:47.983Z,103151.59
2019-02-22T20:57:23.319Z,103158.09
2019-02-22T21:00:08.892Z,103155.02
2019-02-22T21:02:37.393Z,103155.02
2019-02-22T21:05:37.695Z,103146.64
2019-02-22T21:08:06.735Z,103155.80
2019-02-22T21:10:38.352Z,103158.80
2019-02-22T21:13:06.857Z,103161.36
2019-02-22T21:15:35.496Z,103157.44
2019-02-22T21:18:03.933Z,103159.14
2019-02-22T21:20:32.513Z,103154.70
2019-02-22T21:23:01.104Z,103161.22
2019-02-22T21:25:29.820Z,103161.22
2019-02-22T21:27:58.293Z,103166.80
2019-02-22T21:30:26.860Z,103169.41
2019-02-22T21:32:55.454Z,103166.73
2019-02-22T21:35:25.447Z,103163.20
2019-02-22T21:37:54.081Z,103169.69
2019-02-22T21:40:22.641Z,103168.77
2019-02-22T21:42:51.184Z,103173.92
2019-02-22T21:45:19.693Z,103177.38
2019-02-22T21:47:54.725Z,103177.77
2019-02-22T21:50:18.816Z,103173.39
2019-02-22T21:52:47.430Z,103169.36
2019-02-22T21:55:16.398Z,103173.27
2019-02-22T21:57:44.896Z,103172.80
2019-02-22T22:00:21.988Z,103174.84
2019-02-22T22:02:46.193Z,103172.22
2019-02-22T22:05:14.713Z,103171.75
2019-02-22T22:07:43.267Z,103172.48
2019-02-22T22:10:11.938Z,103179.47
2019-02-22T22:12:40.549Z,103177.64
2019-02-22T22:15:13.678Z,103184.12
2019-02-22T22:17:42.634Z,103188.42
2019-02-22T22:20:11.435Z,103181.38
2019-02-22T22:22:40.221Z,103180.45
2019-02-22T22:25:10.619Z,103181.27
2019-02-22T22:27:39.231Z,103187.31
2019-02-22T22:30:15.235Z,103192.89
2019-02-22T22:32:43.817Z,103193.73
2019-02-22T22:35:14.705Z,103186.28
2019-02-22T22:37:43.198Z,103190.20
2019-02-22T22:40:11.982Z,103200.19
2019-02-22T22:42:40.580Z,103194.45
2019-02-22T22:45:17.022Z,103195.29
2019-02-22T22:47:45.460Z,103183.07
2019-02-22T22:50:15.240Z,103193.00
2019-02-22T22:52:45.284Z,103199.52
2019-02-22T22:55:13.923Z,103192.46
2019-02-22T22:57:42.528Z,103199.43
2019-02-22T23:00:35.755Z,103188.02
2019-02-22T23:03:04.343Z,103181.93
2019-02-22T23:05:34.296Z,103190.55
2019-02-22T23:08:02.905Z,103188.33
2019-02-22T23:10:31.420Z,103187.42
2019-02-22T23:12:59.869Z,103192.63
2019-02-22T23:15:28.624Z,103186.42
2019-02-22T23:17:57.128Z,103181.11
2019-02-22T23:20:25.662Z,103180.66
2019-02-22T23:22:54.125Z,103171.86
2019-02-22T23:25:22.644Z,103184.45
2019-02-22T23:27:51.147Z,103180.45
2019-02-22T23:30:19.665Z,103179.09
2019-02-22T23:32:48.086Z,103179.47
2019-02-22T23:35:16.655Z,103180.75
2019-02-22T23:37:45.283Z,103185.52
2019-02-22T23:40:13.865Z,103194.12
2019-02-22T23:42:42.284Z,103193.66
2019-02-22T23:45:10.883Z,103205.36
2019-02-22T23:47:39.575Z,103195.29
2019-02-22T23:50:08.605Z,103202.60
2019-02-22T23:52:37.199Z,103209.97
2019-02-22T23:55:06.175Z,103205.06
2019-02-22T23:57:34.707Z,103203.67
